Scroll down
FLIGHT INFORMATION
British Airways

BAW2036

At Arrival Gate

KMCO
 EGKK
DATE: 2019-09-02
GATE:  -
GATE DEPARTURE: 21:55
TAKEOFF: 22:05
DATE: 2019-09-03
GATE:  -
LANDING: 05:39
GATE ARRIVAL: 05:50
FLIGHT DATA
Crew: 
Speed: 
517 kts
Altitude: 
39,010 ft
Stage Length: 
3,775.1 nm
Block Time: 
7.9 hrs
Flight Time: 
7.6 hrs
Fuel Used: 
167,795 lb
Cleared Route: KMCO ORL GUANO FEMON VIYAP TAALN JROSS BARTL ISO WEAVR ORF SAWED KALDA DUNFE SWL WARNN ZIZZI YAZUU EMJAY GEDIC RIFLE YAHOO BRADD ELSIR 5050N 5140N 5230N 5220N LIMRI XETBO NORLA MERLY DIDEL ELRIP OTMET SOKDU NEDUL ELDER TELTU HOLLY WILLO EGKK
TRACK DATA
50,000 ft 1,000 kts
AIRCRAFT INFO AND CUMULATIVE STATS
Aircraft Type: 
B744
Registration: 
SELCAL: 
BPAM
MSN/LN: 
24049 / 774
Operator: 
Total Flights: 
7
Total Block Time: 
31.7 hrs
Total Flight Time: 
29.5 hrs
Total Fuel Time: 
602,435 lb
DATALINK LOG | Newest first | Current as of: 2021-01-20 21:50:06
LABEL SEQUENCE CONTENT Dn/Up
QD502105:50 50.5▼ Dn
QC392105:39▼ Dn
2U2248EGKK 030350Z 24007KT 9999 SCT035 15/12 Q1023▲ Up
2S2344EGKK▼ Dn
QB064722:05▼ Dn
QA550221:55 218.3▼ Dn
A35140CLEARED TO EGKK VIA MCOY2 GUANO FEMON Q87 JROSS BARTL J121 ORF J174 RIFLE YAHOO BRADD N319A ELSIR NATZ XETBO NORLA UM140 MERLY L149 DIDEL N513 ELRIP N17 OTMET OTMET1G. SQUAWK 1653.▲ Up
2U5138KMCO 022053Z 03015G21KT 10SM SCT033 SCT130 BKN250 BKN300 29/23 A2977 RMK AO2 SLP078 60026 T02890228 56014▲ Up
2S5249KMCO▼ Dn
Q05029[LINK ACK]▲ Up
Q05145[LINK TEST]▼ Dn


AIRCRAFT HISTORY
FLIGHT DATE FLIGHT NO. ORIGIN DESTINATION CLEARED ROUTE BLOCK TIME FLIGHT TIME FUEL USED PILOT
2020-06-09BAW609KSEA KORD KSEA SEA NORMY BLUIT MWH ODESS HLN BIL RECAP DPR FSD HAYNS ONTIJ MCW SUZYQ VIKNG LARVA JIBOR BRIBE MYTCH JVL BULLZ TEDDY KRENA GIBNS RW10L3.3 hrs3.2 hrs3,601 lbRandall Smith
2020-06-07BAW607EGLL KSEA EGLL D270D D282G BURNB D357D UMLAT TNT RODOL TENSO BELOX REMSI GINGA GOMUP 6120N YJI YZS YEK YYL ROMDA LITGO YVC ADVOX TEMPL WITRO ODAHL GLASR JAKSN WOODI HETHR KENMO RW16L9.4 hrs9.3 hrs208,300 lbRandall Smith
2019-12-19BAW1EGKK EGLL EGKK BIG RW09L0.5 hrs0.3 hrs10,285 lbChris Makris
2019-09-02BAW2036KMCO EGKK KMCO ORL GUANO FEMON VIYAP TAALN JROSS BARTL ISO WEAVR ORF SAWED KALDA DUNFE SWL WARNN ZIZZI YAZUU EMJAY GEDIC RIFLE YAHOO BRADD ELSIR 5050N 5140N 5230N 5220N LIMRI XETBO NORLA MERLY DIDEL ELRIP OTMET SOKDU NEDUL ELDER TELTU HOLLY WILLO EGKK7.9 hrs7.6 hrs167,795 lbKyle Rodgers
2018-09-02BAW5KJFK KMCO 2.4 hrs2 hrs48,375 lb-HIDDEN-
2018-07-21BAW8012TNCM KJFK 3.9 hrs3.5 hrs78,919 lbRobert S. Randazzo
2018-07-07BAW8011KIAD TNCM 4.2 hrs3.7 hrs85,160 lbRobert S. Randazzo